sensor_id;sensor_type;location;lat;lon;timestamp;P1;durP1;ratioP1;P2;durP2;ratioP2
62941;SDS011;49042;47.318;19.874;2023-03-24T00:02:15;13.50;;;9.02;;
62941;SDS011;49042;47.318;19.874;2023-03-24T00:05:17;15.00;;;9.30;;
62941;SDS011;49042;47.318;19.874;2023-03-24T00:08:21;13.60;;;9.63;;
62941;SDS011;49042;47.318;19.874;2023-03-24T00:11:22;13.55;;;9.88;;
62941;SDS011;49042;47.318;19.874;2023-03-24T00:14:25;15.93;;;9.10;;
62941;SDS011;49042;47.318;19.874;2023-03-24T00:17:31;18.42;;;9.52;;
62941;SDS011;49042;47.318;19.874;2023-03-24T00:20:36;14.93;;;10.25;;
62941;SDS011;49042;47.318;19.874;2023-03-24T00:23:37;17.05;;;10.98;;
62941;SDS011;49042;47.318;19.874;2023-03-24T00:26:42;17.45;;;10.48;;
62941;SDS011;49042;47.318;19.874;2023-03-24T00:29:44;14.05;;;9.93;;
62941;SDS011;49042;47.318;19.874;2023-03-24T00:32:46;17.12;;;9.98;;
62941;SDS011;49042;47.318;19.874;2023-03-24T00:35:48;16.60;;;11.12;;
62941;SDS011;49042;47.318;19.874;2023-03-24T00:38:50;15.35;;;11.27;;
62941;SDS011;49042;47.318;19.874;2023-03-24T00:41:53;14.55;;;10.13;;
62941;SDS011;49042;47.318;19.874;2023-03-24T00:44:58;16.77;;;10.07;;
62941;SDS011;49042;47.318;19.874;2023-03-24T00:48:00;15.23;;;10.30;;
62941;SDS011;49042;47.318;19.874;2023-03-24T00:51:03;13.73;;;10.02;;
62941;SDS011;49042;47.318;19.874;2023-03-24T00:54:09;17.52;;;10.80;;
62941;SDS011;49042;47.318;19.874;2023-03-24T00:57:13;16.05;;;9.88;;
62941;SDS011;49042;47.318;19.874;2023-03-24T01:00:23;17.30;;;10.68;;
62941;SDS011;49042;47.318;19.874;2023-03-24T01:03:26;16.00;;;11.27;;
62941;SDS011;49042;47.318;19.874;2023-03-24T01:06:28;27.05;;;10.82;;
62941;SDS011;49042;47.318;19.874;2023-03-24T01:09:30;15.23;;;10.25;;
62941;SDS011;49042;47.318;19.874;2023-03-24T01:12:34;19.27;;;11.07;;
62941;SDS011;49042;47.318;19.874;2023-03-24T01:15:37;17.62;;;10.45;;
62941;SDS011;49042;47.318;19.874;2023-03-24T01:18:39;15.80;;;10.65;;
62941;SDS011;49042;47.318;19.874;2023-03-24T01:21:42;20.12;;;10.75;;
62941;SDS011;49042;47.318;19.874;2023-03-24T01:24:44;25.27;;;11.40;;
62941;SDS011;49042;47.318;19.874;2023-03-24T01:27:47;14.35;;;10.77;;
62941;SDS011;49042;47.318;19.874;2023-03-24T01:30:50;16.52;;;11.27;;
62941;SDS011;49042;47.318;19.874;2023-03-24T01:33:53;15.85;;;10.85;;
62941;SDS011;49042;47.318;19.874;2023-03-24T01:36:55;17.35;;;12.10;;
62941;SDS011;49042;47.318;19.874;2023-03-24T01:39:56;20.30;;;12.37;;
62941;SDS011;49042;47.318;19.874;2023-03-24T01:42:58;18.05;;;11.77;;
62941;SDS011;49042;47.318;19.874;2023-03-24T01:49:09;17.98;;;12.18;;
62941;SDS011;49042;47.318;19.874;2023-03-24T01:52:18;19.40;;;12.05;;
62941;SDS011;49042;47.318;19.874;2023-03-24T01:55:26;18.67;;;11.80;;
62941;SDS011;49042;47.318;19.874;2023-03-24T01:58:30;18.27;;;11.63;;
62941;SDS011;49042;47.318;19.874;2023-03-24T02:01:33;17.98;;;11.57;;
62941;SDS011;49042;47.318;19.874;2023-03-24T02:04:39;16.85;;;12.10;;
62941;SDS011;49042;47.318;19.874;2023-03-24T02:10:51;15.82;;;10.95;;
62941;SDS011;49042;47.318;19.874;2023-03-24T02:13:55;17.33;;;11.93;;
62941;SDS011;49042;47.318;19.874;2023-03-24T02:20:25;17.10;;;11.88;;
62941;SDS011;49042;47.318;19.874;2023-03-24T02:26:58;19.50;;;11.90;;
62941;SDS011;49042;47.318;19.874;2023-03-24T02:30:29;19.62;;;12.30;;
62941;SDS011;49042;47.318;19.874;2023-03-24T02:40:36;20.02;;;12.55;;
62941;SDS011;49042;47.318;19.874;2023-03-24T02:50:37;25.23;;;13.15;;
62941;SDS011;49042;47.318;19.874;2023-03-24T02:56:55;22.17;;;14.82;;
62941;SDS011;49042;47.318;19.874;2023-03-24T03:00:12;21.55;;;14.15;;
62941;SDS011;49042;47.318;19.874;2023-03-24T03:03:30;26.27;;;15.00;;
62941;SDS011;49042;47.318;19.874;2023-03-24T03:06:38;25.95;;;14.95;;
62941;SDS011;49042;47.318;19.874;2023-03-24T03:09:46;29.63;;;15.20;;
62941;SDS011;49042;47.318;19.874;2023-03-24T03:12:53;29.45;;;16.00;;
62941;SDS011;49042;47.318;19.874;2023-03-24T03:16:02;34.58;;;17.60;;
62941;SDS011;49042;47.318;19.874;2023-03-24T03:19:16;31.00;;;16.23;;
62941;SDS011;49042;47.318;19.874;2023-03-24T03:22:22;24.73;;;15.38;;
62941;SDS011;49042;47.318;19.874;2023-03-24T03:25:29;25.15;;;14.75;;
62941;SDS011;49042;47.318;19.874;2023-03-24T03:28:38;19.90;;;12.55;;
62941;SDS011;49042;47.318;19.874;2023-03-24T03:31:46;20.03;;;12.97;;
62941;SDS011;49042;47.318;19.874;2023-03-24T03:41:20;21.92;;;14.38;;
62941;SDS011;49042;47.318;19.874;2023-03-24T03:44:22;24.08;;;13.55;;
62941;SDS011;49042;47.318;19.874;2023-03-24T03:47:25;22.05;;;14.05;;
62941;SDS011;49042;47.318;19.874;2023-03-24T03:50:27;23.98;;;13.25;;
62941;SDS011;49042;47.318;19.874;2023-03-24T03:53:39;19.77;;;13.30;;
62941;SDS011;49042;47.318;19.874;2023-03-24T03:56:48;19.62;;;13.38;;
62941;SDS011;49042;47.318;19.874;2023-03-24T03:59:50;21.80;;;14.35;;
62941;SDS011;49042;47.318;19.874;2023-03-24T04:15:47;24.80;;;13.77;;
62941;SDS011;49042;47.318;19.874;2023-03-24T04:22:38;21.52;;;13.10;;
62941;SDS011;49042;47.318;19.874;2023-03-24T04:29:11;23.73;;;14.57;;
62941;SDS011;49042;47.318;19.874;2023-03-24T04:32:20;23.27;;;13.82;;
62941;SDS011;49042;47.318;19.874;2023-03-24T04:35:39;29.50;;;16.45;;
62941;SDS011;49042;47.318;19.874;2023-03-24T04:38:47;24.50;;;14.48;;
62941;SDS011;49042;47.318;19.874;2023-03-24T04:41:54;48.40;;;15.07;;
62941;SDS011;49042;47.318;19.874;2023-03-24T04:44:58;31.95;;;16.08;;
62941;SDS011;49042;47.318;19.874;2023-03-24T04:48:02;30.88;;;14.90;;
62941;SDS011;49042;47.318;19.874;2023-03-24T04:51:07;26.20;;;14.77;;
62941;SDS011;49042;47.318;19.874;2023-03-24T04:54:09;23.10;;;14.00;;
62941;SDS011;49042;47.318;19.874;2023-03-24T04:57:11;22.10;;;14.65;;
62941;SDS011;49042;47.318;19.874;2023-03-24T05:00:13;23.83;;;14.25;;
62941;SDS011;49042;47.318;19.874;2023-03-24T05:03:17;23.52;;;15.80;;
62941;SDS011;49042;47.318;19.874;2023-03-24T05:06:19;31.00;;;16.10;;
62941;SDS011;49042;47.318;19.874;2023-03-24T05:09:22;25.48;;;15.95;;
62941;SDS011;49042;47.318;19.874;2023-03-24T05:12:25;22.87;;;15.82;;
62941;SDS011;49042;47.318;19.874;2023-03-24T05:15:27;26.95;;;16.10;;
62941;SDS011;49042;47.318;19.874;2023-03-24T05:18:29;24.48;;;15.70;;
62941;SDS011;49042;47.318;19.874;2023-03-24T05:21:31;21.90;;;16.08;;
62941;SDS011;49042;47.318;19.874;2023-03-24T05:24:34;29.10;;;15.60;;
62941;SDS011;49042;47.318;19.874;2023-03-24T05:27:35;25.67;;;16.65;;
62941;SDS011;49042;47.318;19.874;2023-03-24T05:30:37;23.45;;;16.08;;
62941;SDS011;49042;47.318;19.874;2023-03-24T05:33:39;26.30;;;16.20;;
62941;SDS011;49042;47.318;19.874;2023-03-24T05:36:41;31.27;;;16.40;;
62941;SDS011;49042;47.318;19.874;2023-03-24T05:39:43;23.05;;;15.77;;
62941;SDS011;49042;47.318;19.874;2023-03-24T05:42:47;24.15;;;15.38;;
62941;SDS011;49042;47.318;19.874;2023-03-24T05:45:49;33.88;;;20.37;;
62941;SDS011;49042;47.318;19.874;2023-03-24T05:48:51;31.33;;;18.60;;
62941;SDS011;49042;47.318;19.874;2023-03-24T05:51:53;28.70;;;16.77;;
62941;SDS011;49042;47.318;19.874;2023-03-24T05:54:56;28.50;;;16.30;;
62941;SDS011;49042;47.318;19.874;2023-03-24T05:57:58;29.70;;;16.52;;
62941;SDS011;49042;47.318;19.874;2023-03-24T06:01:06;31.45;;;16.23;;
62941;SDS011;49042;47.318;19.874;2023-03-24T06:04:10;25.48;;;16.02;;
62941;SDS011;49042;47.318;19.874;2023-03-24T06:07:14;32.47;;;15.82;;
62941;SDS011;49042;47.318;19.874;2023-03-24T06:10:16;28.58;;;16.85;;
62941;SDS011;49042;47.318;19.874;2023-03-24T06:13:18;26.12;;;15.82;;
62941;SDS011;49042;47.318;19.874;2023-03-24T06:16:20;22.35;;;16.27;;
62941;SDS011;49042;47.318;19.874;2023-03-24T06:19:24;22.15;;;15.52;;
62941;SDS011;49042;47.318;19.874;2023-03-24T06:22:27;29.02;;;16.10;;
62941;SDS011;49042;47.318;19.874;2023-03-24T06:25:31;30.73;;;16.55;;
62941;SDS011;49042;47.318;19.874;2023-03-24T06:28:39;21.33;;;15.48;;
62941;SDS011;49042;47.318;19.874;2023-03-24T06:31:47;24.23;;;15.57;;
62941;SDS011;49042;47.318;19.874;2023-03-24T06:34:49;24.37;;;16.23;;
62941;SDS011;49042;47.318;19.874;2023-03-24T06:37:51;28.20;;;15.60;;
62941;SDS011;49042;47.318;19.874;2023-03-24T06:40:52;23.00;;;14.50;;
62941;SDS011;49042;47.318;19.874;2023-03-24T06:43:54;21.73;;;14.38;;
62941;SDS011;49042;47.318;19.874;2023-03-24T06:46:56;20.02;;;14.27;;
62941;SDS011;49042;47.318;19.874;2023-03-24T06:49:57;22.33;;;15.02;;
62941;SDS011;49042;47.318;19.874;2023-03-24T06:53:00;23.00;;;13.68;;
62941;SDS011;49042;47.318;19.874;2023-03-24T06:56:02;23.48;;;13.32;;
62941;SDS011;49042;47.318;19.874;2023-03-24T06:59:04;22.50;;;13.23;;
62941;SDS011;49042;47.318;19.874;2023-03-24T07:02:08;17.12;;;13.20;;
62941;SDS011;49042;47.318;19.874;2023-03-24T07:05:12;16.37;;;12.13;;
62941;SDS011;49042;47.318;19.874;2023-03-24T07:08:14;16.12;;;12.95;;
62941;SDS011;49042;47.318;19.874;2023-03-24T07:11:36;15.45;;;12.27;;
62941;SDS011;49042;47.318;19.874;2023-03-24T07:14:38;17.35;;;12.55;;
62941;SDS011;49042;47.318;19.874;2023-03-24T07:17:40;24.08;;;13.95;;
62941;SDS011;49042;47.318;19.874;2023-03-24T07:20:43;22.77;;;12.57;;
62941;SDS011;49042;47.318;19.874;2023-03-24T07:23:45;21.45;;;12.23;;
62941;SDS011;49042;47.318;19.874;2023-03-24T07:26:47;23.65;;;12.02;;
62941;SDS011;49042;47.318;19.874;2023-03-24T07:29:48;16.62;;;11.48;;
62941;SDS011;49042;47.318;19.874;2023-03-24T07:32:50;20.85;;;11.70;;
62941;SDS011;49042;47.318;19.874;2023-03-24T07:35:55;23.30;;;12.27;;
62941;SDS011;49042;47.318;19.874;2023-03-24T07:38:57;15.80;;;12.20;;
62941;SDS011;49042;47.318;19.874;2023-03-24T07:41:59;23.75;;;12.15;;
62941;SDS011;49042;47.318;19.874;2023-03-24T07:45:01;19.62;;;11.98;;
62941;SDS011;49042;47.318;19.874;2023-03-24T07:48:02;14.60;;;11.60;;
62941;SDS011;49042;47.318;19.874;2023-03-24T07:51:04;25.12;;;12.57;;
62941;SDS011;49042;47.318;19.874;2023-03-24T07:54:06;18.98;;;12.93;;
62941;SDS011;49042;47.318;19.874;2023-03-24T07:57:08;22.73;;;13.50;;
62941;SDS011;49042;47.318;19.874;2023-03-24T08:00:11;28.85;;;13.62;;
62941;SDS011;49042;47.318;19.874;2023-03-24T08:03:20;17.50;;;13.10;;
62941;SDS011;49042;47.318;19.874;2023-03-24T08:06:28;17.85;;;12.07;;
62941;SDS011;49042;47.318;19.874;2023-03-24T08:09:30;16.90;;;11.82;;
62941;SDS011;49042;47.318;19.874;2023-03-24T08:12:32;18.08;;;11.23;;
62941;SDS011;49042;47.318;19.874;2023-03-24T08:15:33;17.55;;;11.15;;
62941;SDS011;49042;47.318;19.874;2023-03-24T08:18:35;13.25;;;9.93;;
62941;SDS011;49042;47.318;19.874;2023-03-24T08:21:39;11.98;;;8.85;;
62941;SDS011;49042;47.318;19.874;2023-03-24T08:24:41;13.38;;;9.30;;
62941;SDS011;49042;47.318;19.874;2023-03-24T08:27:43;18.70;;;8.63;;
62941;SDS011;49042;47.318;19.874;2023-03-24T08:30:45;14.70;;;8.50;;
62941;SDS011;49042;47.318;19.874;2023-03-24T08:33:47;19.33;;;8.18;;
62941;SDS011;49042;47.318;19.874;2023-03-24T08:36:49;11.95;;;8.35;;
62941;SDS011;49042;47.318;19.874;2023-03-24T08:39:51;12.27;;;8.23;;
62941;SDS011;49042;47.318;19.874;2023-03-24T08:42:54;11.90;;;8.15;;
62941;SDS011;49042;47.318;19.874;2023-03-24T08:45:58;12.68;;;7.85;;
62941;SDS011;49042;47.318;19.874;2023-03-24T08:49:01;15.48;;;8.07;;
62941;SDS011;49042;47.318;19.874;2023-03-24T08:52:03;9.90;;;6.65;;
62941;SDS011;49042;47.318;19.874;2023-03-24T08:55:05;10.32;;;6.82;;
62941;SDS011;49042;47.318;19.874;2023-03-24T08:58:13;15.25;;;7.30;;
62941;SDS011;49042;47.318;19.874;2023-03-24T09:01:17;15.68;;;7.28;;
62941;SDS011;49042;47.318;19.874;2023-03-24T09:04:18;13.18;;;6.60;;
62941;SDS011;49042;47.318;19.874;2023-03-24T09:07:20;10.48;;;6.45;;
62941;SDS011;49042;47.318;19.874;2023-03-24T09:10:22;9.65;;;6.37;;
62941;SDS011;49042;47.318;19.874;2023-03-24T09:13:24;12.63;;;6.18;;
62941;SDS011;49042;47.318;19.874;2023-03-24T09:16:26;11.95;;;6.45;;
62941;SDS011;49042;47.318;19.874;2023-03-24T09:19:28;11.27;;;6.00;;
62941;SDS011;49042;47.318;19.874;2023-03-24T09:22:30;10.98;;;5.93;;
62941;SDS011;49042;47.318;19.874;2023-03-24T09:25:31;10.30;;;6.15;;
62941;SDS011;49042;47.318;19.874;2023-03-24T09:28:33;12.10;;;6.03;;
62941;SDS011;49042;47.318;19.874;2023-03-24T09:31:35;10.40;;;7.20;;
62941;SDS011;49042;47.318;19.874;2023-03-24T09:34:37;11.85;;;6.15;;
62941;SDS011;49042;47.318;19.874;2023-03-24T09:37:39;13.70;;;5.82;;
62941;SDS011;49042;47.318;19.874;2023-03-24T09:40:43;16.87;;;6.60;;
62941;SDS011;49042;47.318;19.874;2023-03-24T09:43:59;12.05;;;6.65;;
62941;SDS011;49042;47.318;19.874;2023-03-24T09:50:17;9.43;;;6.60;;
62941;SDS011;49042;47.318;19.874;2023-03-24T09:56:41;22.98;;;6.90;;
62941;SDS011;49042;47.318;19.874;2023-03-24T09:59:45;12.45;;;6.47;;
62941;SDS011;49042;47.318;19.874;2023-03-24T10:02:47;19.08;;;6.32;;
62941;SDS011;49042;47.318;19.874;2023-03-24T10:05:56;12.23;;;7.00;;
62941;SDS011;49042;47.318;19.874;2023-03-24T10:12:44;14.90;;;6.65;;
62941;SDS011;49042;47.318;19.874;2023-03-24T10:19:23;15.60;;;4.55;;
62941;SDS011;49042;47.318;19.874;2023-03-24T10:22:40;24.40;;;4.03;;
62941;SDS011;49042;47.318;19.874;2023-03-24T10:29:18;12.25;;;3.20;;
62941;SDS011;49042;47.318;19.874;2023-03-24T10:32:24;7.47;;;2.40;;
62941;SDS011;49042;47.318;19.874;2023-03-24T10:35:34;33.35;;;3.28;;
62941;SDS011;49042;47.318;19.874;2023-03-24T10:38:40;21.40;;;2.65;;
62941;SDS011;49042;47.318;19.874;2023-03-24T10:41:42;7.37;;;2.33;;
62941;SDS011;49042;47.318;19.874;2023-03-24T10:44:45;3.42;;;2.10;;
62941;SDS011;49042;47.318;19.874;2023-03-24T10:47:48;4.28;;;2.03;;
62941;SDS011;49042;47.318;19.874;2023-03-24T10:50:53;2.83;;;1.92;;
62941;SDS011;49042;47.318;19.874;2023-03-24T10:54:13;24.30;;;2.90;;
62941;SDS011;49042;47.318;19.874;2023-03-24T10:57:25;6.30;;;2.28;;
62941;SDS011;49042;47.318;19.874;2023-03-24T11:00:28;10.75;;;1.83;;
62941;SDS011;49042;47.318;19.874;2023-03-24T11:03:33;7.12;;;2.20;;
62941;SDS011;49042;47.318;19.874;2023-03-24T11:06:37;4.07;;;2.00;;
62941;SDS011;49042;47.318;19.874;2023-03-24T11:09:40;21.35;;;2.65;;
62941;SDS011;49042;47.318;19.874;2023-03-24T11:15:55;11.45;;;2.42;;
62941;SDS011;49042;47.318;19.874;2023-03-24T11:22:07;6.62;;;2.30;;
62941;SDS011;49042;47.318;19.874;2023-03-24T11:25:11;6.15;;;2.15;;
62941;SDS011;49042;47.318;19.874;2023-03-24T11:28:14;6.18;;;2.10;;
62941;SDS011;49042;47.318;19.874;2023-03-24T11:31:24;5.95;;;2.08;;
62941;SDS011;49042;47.318;19.874;2023-03-24T11:34:31;7.95;;;2.12;;
62941;SDS011;49042;47.318;19.874;2023-03-24T11:37:39;11.50;;;2.00;;
62941;SDS011;49042;47.318;19.874;2023-03-24T11:40:51;5.75;;;1.83;;
62941;SDS011;49042;47.318;19.874;2023-03-24T11:44:06;10.25;;;2.33;;
62941;SDS011;49042;47.318;19.874;2023-03-24T11:47:30;4.45;;;1.80;;
62941;SDS011;49042;47.318;19.874;2023-03-24T11:50:34;5.62;;;2.03;;
62941;SDS011;49042;47.318;19.874;2023-03-24T11:53:45;6.82;;;2.12;;
62941;SDS011;49042;47.318;19.874;2023-03-24T11:56:52;13.25;;;2.30;;
62941;SDS011;49042;47.318;19.874;2023-03-24T12:00:00;8.23;;;2.40;;
62941;SDS011;49042;47.318;19.874;2023-03-24T12:11:05;2.12;;;1.77;;
62941;SDS011;49042;47.318;19.874;2023-03-24T12:14:09;6.47;;;1.83;;
62941;SDS011;49042;47.318;19.874;2023-03-24T12:17:18;3.35;;;1.70;;
62941;SDS011;49042;47.318;19.874;2023-03-24T12:20:30;7.78;;;2.05;;
62941;SDS011;49042;47.318;19.874;2023-03-24T12:26:57;4.18;;;2.00;;
62941;SDS011;49042;47.318;19.874;2023-03-24T12:30:11;5.12;;;1.83;;
62941;SDS011;49042;47.318;19.874;2023-03-24T12:41:26;8.07;;;1.80;;
62941;SDS011;49042;47.318;19.874;2023-03-24T12:47:58;30.80;;;3.08;;
62941;SDS011;49042;47.318;19.874;2023-03-24T13:04:38;7.60;;;1.80;;
62941;SDS011;49042;47.318;19.874;2023-03-24T13:07:42;9.13;;;1.52;;
62941;SDS011;49042;47.318;19.874;2023-03-24T13:10:47;2.87;;;1.77;;
62941;SDS011;49042;47.318;19.874;2023-03-24T13:13:54;3.22;;;1.48;;
62941;SDS011;49042;47.318;19.874;2023-03-24T13:17:07;9.45;;;1.73;;
62941;SDS011;49042;47.318;19.874;2023-03-24T13:33:15;4.40;;;1.62;;
62941;SDS011;49042;47.318;19.874;2023-03-24T13:39:39;7.30;;;2.20;;
62941;SDS011;49042;47.318;19.874;2023-03-24T13:42:46;4.70;;;1.70;;
62941;SDS011;49042;47.318;19.874;2023-03-24T13:46:02;2.80;;;1.50;;
62941;SDS011;49042;47.318;19.874;2023-03-24T13:49:09;2.42;;;1.40;;
62941;SDS011;49042;47.318;19.874;2023-03-24T13:55:28;6.55;;;1.77;;
62941;SDS011;49042;47.318;19.874;2023-03-24T13:58:45;3.33;;;1.40;;
62941;SDS011;49042;47.318;19.874;2023-03-24T14:11:46;8.40;;;2.00;;
62941;SDS011;49042;47.318;19.874;2023-03-24T14:21:27;2.37;;;1.60;;
62941;SDS011;49042;47.318;19.874;2023-03-24T14:24:30;1.85;;;1.52;;
62941;SDS011;49042;47.318;19.874;2023-03-24T14:27:34;2.55;;;1.70;;
62941;SDS011;49042;47.318;19.874;2023-03-24T14:30:38;3.17;;;2.30;;
62941;SDS011;49042;47.318;19.874;2023-03-24T14:37:14;10.77;;;2.08;;
62941;SDS011;49042;47.318;19.874;2023-03-24T14:40:23;3.05;;;2.20;;
62941;SDS011;49042;47.318;19.874;2023-03-24T14:46:44;11.02;;;2.00;;
62941;SDS011;49042;47.318;19.874;2023-03-24T14:49:52;6.15;;;1.98;;
62941;SDS011;49042;47.318;19.874;2023-03-24T14:52:59;4.15;;;1.70;;
62941;SDS011;49042;47.318;19.874;2023-03-24T14:56:05;9.88;;;2.05;;
62941;SDS011;49042;47.318;19.874;2023-03-24T14:59:21;11.30;;;1.90;;
62941;SDS011;49042;47.318;19.874;2023-03-24T15:05:51;9.20;;;1.70;;
62941;SDS011;49042;47.318;19.874;2023-03-24T15:08:57;7.95;;;1.70;;
62941;SDS011;49042;47.318;19.874;2023-03-24T15:12:01;5.90;;;2.50;;
62941;SDS011;49042;47.318;19.874;2023-03-24T15:15:04;3.85;;;2.00;;
62941;SDS011;49042;47.318;19.874;2023-03-24T15:18:15;12.02;;;2.25;;
62941;SDS011;49042;47.318;19.874;2023-03-24T15:24:30;2.53;;;1.65;;
62941;SDS011;49042;47.318;19.874;2023-03-24T15:27:33;6.70;;;1.70;;
62941;SDS011;49042;47.318;19.874;2023-03-24T15:30:35;5.85;;;1.95;;
62941;SDS011;49042;47.318;19.874;2023-03-24T15:33:41;26.40;;;2.30;;
62941;SDS011;49042;47.318;19.874;2023-03-24T15:36:43;4.17;;;1.50;;
62941;SDS011;49042;47.318;19.874;2023-03-24T15:39:50;6.20;;;2.03;;
62941;SDS011;49042;47.318;19.874;2023-03-24T15:43:06;8.95;;;1.42;;
62941;SDS011;49042;47.318;19.874;2023-03-24T15:49:30;3.42;;;1.70;;
62941;SDS011;49042;47.318;19.874;2023-03-24T15:52:35;6.20;;;2.20;;
62941;SDS011;49042;47.318;19.874;2023-03-24T15:55:38;7.70;;;1.62;;
62941;SDS011;49042;47.318;19.874;2023-03-24T15:58:47;5.43;;;2.00;;
62941;SDS011;49042;47.318;19.874;2023-03-24T16:01:49;5.35;;;1.65;;
62941;SDS011;49042;47.318;19.874;2023-03-24T16:04:56;5.72;;;2.08;;
62941;SDS011;49042;47.318;19.874;2023-03-24T16:14:42;3.42;;;1.70;;
62941;SDS011;49042;47.318;19.874;2023-03-24T16:17:43;2.50;;;1.92;;
62941;SDS011;49042;47.318;19.874;2023-03-24T16:20:46;11.45;;;2.25;;
62941;SDS011;49042;47.318;19.874;2023-03-24T16:23:48;3.50;;;1.80;;
62941;SDS011;49042;47.318;19.874;2023-03-24T16:26:52;3.42;;;2.20;;
62941;SDS011;49042;47.318;19.874;2023-03-24T16:29:54;3.55;;;1.98;;
62941;SDS011;49042;47.318;19.874;2023-03-24T16:32:56;11.32;;;2.20;;
62941;SDS011;49042;47.318;19.874;2023-03-24T16:35:58;4.90;;;1.90;;
62941;SDS011;49042;47.318;19.874;2023-03-24T16:39:01;131.93;;;82.43;;
62941;SDS011;49042;47.318;19.874;2023-03-24T16:42:03;119.32;;;82.12;;
62941;SDS011;49042;47.318;19.874;2023-03-24T16:45:05;11.48;;;8.30;;
62941;SDS011;49042;47.318;19.874;2023-03-24T16:48:10;8.90;;;6.43;;
62941;SDS011;49042;47.318;19.874;2023-03-24T16:51:12;6.05;;;2.67;;
62941;SDS011;49042;47.318;19.874;2023-03-24T16:54:15;3.22;;;1.90;;
62941;SDS011;49042;47.318;19.874;2023-03-24T16:57:17;3.17;;;2.40;;
62941;SDS011;49042;47.318;19.874;2023-03-24T17:00:19;6.80;;;3.15;;
62941;SDS011;49042;47.318;19.874;2023-03-24T17:03:21;13.45;;;9.65;;
62941;SDS011;49042;47.318;19.874;2023-03-24T17:06:25;6.37;;;3.53;;
62941;SDS011;49042;47.318;19.874;2023-03-24T17:09:28;7.50;;;3.83;;
62941;SDS011;49042;47.318;19.874;2023-03-24T17:12:31;3.05;;;2.30;;
62941;SDS011;49042;47.318;19.874;2023-03-24T17:15:33;7.65;;;2.17;;
62941;SDS011;49042;47.318;19.874;2023-03-24T17:18:35;4.18;;;3.00;;
62941;SDS011;49042;47.318;19.874;2023-03-24T17:21:44;4.28;;;2.65;;
62941;SDS011;49042;47.318;19.874;2023-03-24T17:24:50;4.22;;;3.00;;
62941;SDS011;49042;47.318;19.874;2023-03-24T17:27:58;8.50;;;3.03;;
62941;SDS011;49042;47.318;19.874;2023-03-24T17:31:00;9.27;;;3.10;;
62941;SDS011;49042;47.318;19.874;2023-03-24T17:34:02;8.10;;;3.50;;
62941;SDS011;49042;47.318;19.874;2023-03-24T17:37:21;8.13;;;4.75;;
62941;SDS011;49042;47.318;19.874;2023-03-24T17:40:25;8.98;;;4.28;;
62941;SDS011;49042;47.318;19.874;2023-03-24T17:43:27;8.35;;;4.50;;
62941;SDS011;49042;47.318;19.874;2023-03-24T17:46:29;14.18;;;5.15;;
62941;SDS011;49042;47.318;19.874;2023-03-24T17:49:32;12.37;;;5.35;;
62941;SDS011;49042;47.318;19.874;2023-03-24T17:52:44;12.88;;;5.60;;
62941;SDS011;49042;47.318;19.874;2023-03-24T17:55:49;13.18;;;5.90;;
62941;SDS011;49042;47.318;19.874;2023-03-24T17:58:53;7.28;;;3.30;;
62941;SDS011;49042;47.318;19.874;2023-03-24T18:01:59;10.43;;;4.15;;
62941;SDS011;49042;47.318;19.874;2023-03-24T18:05:01;21.45;;;3.85;;
62941;SDS011;49042;47.318;19.874;2023-03-24T18:08:04;20.50;;;4.03;;
62941;SDS011;49042;47.318;19.874;2023-03-24T18:11:10;13.82;;;5.68;;
62941;SDS011;49042;47.318;19.874;2023-03-24T18:14:15;11.60;;;5.28;;
62941;SDS011;49042;47.318;19.874;2023-03-24T18:17:17;17.42;;;5.37;;
62941;SDS011;49042;47.318;19.874;2023-03-24T18:20:20;19.08;;;5.50;;
62941;SDS011;49042;47.318;19.874;2023-03-24T18:23:23;15.23;;;4.62;;
62941;SDS011;49042;47.318;19.874;2023-03-24T18:26:25;11.93;;;5.87;;
62941;SDS011;49042;47.318;19.874;2023-03-24T18:29:28;15.32;;;5.32;;
62941;SDS011;49042;47.318;19.874;2023-03-24T18:32:30;9.15;;;4.82;;
62941;SDS011;49042;47.318;19.874;2023-03-24T18:35:39;16.40;;;4.93;;
62941;SDS011;49042;47.318;19.874;2023-03-24T18:38:43;9.82;;;5.32;;
62941;SDS011;49042;47.318;19.874;2023-03-24T18:41:47;12.40;;;6.10;;
62941;SDS011;49042;47.318;19.874;2023-03-24T18:44:51;17.90;;;7.03;;
62941;SDS011;49042;47.318;19.874;2023-03-24T18:47:55;17.75;;;8.35;;
62941;SDS011;49042;47.318;19.874;2023-03-24T18:50:59;18.40;;;8.20;;
62941;SDS011;49042;47.318;19.874;2023-03-24T18:54:02;13.55;;;8.07;;
62941;SDS011;49042;47.318;19.874;2023-03-24T18:57:05;15.70;;;7.85;;
62941;SDS011;49042;47.318;19.874;2023-03-24T19:00:12;12.85;;;5.70;;
62941;SDS011;49042;47.318;19.874;2023-03-24T19:03:16;13.45;;;5.28;;
62941;SDS011;49042;47.318;19.874;2023-03-24T19:06:19;19.67;;;6.22;;
62941;SDS011;49042;47.318;19.874;2023-03-24T19:09:22;14.30;;;6.30;;
62941;SDS011;49042;47.318;19.874;2023-03-24T19:12:24;12.60;;;4.25;;
62941;SDS011;49042;47.318;19.874;2023-03-24T19:15:27;9.45;;;4.12;;
62941;SDS011;49042;47.318;19.874;2023-03-24T19:18:33;16.10;;;8.18;;
62941;SDS011;49042;47.318;19.874;2023-03-24T19:21:37;8.75;;;4.80;;
62941;SDS011;49042;47.318;19.874;2023-03-24T19:24:41;12.85;;;6.50;;
62941;SDS011;49042;47.318;19.874;2023-03-24T19:27:44;13.35;;;4.97;;
62941;SDS011;49042;47.318;19.874;2023-03-24T19:30:48;12.10;;;5.37;;
62941;SDS011;49042;47.318;19.874;2023-03-24T19:33:51;11.45;;;5.35;;
62941;SDS011;49042;47.318;19.874;2023-03-24T19:36:54;13.15;;;5.30;;
62941;SDS011;49042;47.318;19.874;2023-03-24T19:39:58;21.60;;;5.72;;
62941;SDS011;49042;47.318;19.874;2023-03-24T19:43:02;11.57;;;5.12;;
62941;SDS011;49042;47.318;19.874;2023-03-24T19:46:05;12.40;;;5.20;;
62941;SDS011;49042;47.318;19.874;2023-03-24T19:49:08;14.93;;;6.35;;
62941;SDS011;49042;47.318;19.874;2023-03-24T19:52:11;15.77;;;6.65;;
62941;SDS011;49042;47.318;19.874;2023-03-24T19:55:13;17.45;;;6.80;;
62941;SDS011;49042;47.318;19.874;2023-03-24T19:58:16;23.62;;;6.95;;
62941;SDS011;49042;47.318;19.874;2023-03-24T20:01:19;11.15;;;5.78;;
62941;SDS011;49042;47.318;19.874;2023-03-24T20:04:24;20.58;;;6.65;;
62941;SDS011;49042;47.318;19.874;2023-03-24T20:07:27;16.40;;;5.87;;
62941;SDS011;49042;47.318;19.874;2023-03-24T20:10:30;12.23;;;5.72;;
62941;SDS011;49042;47.318;19.874;2023-03-24T20:13:36;12.25;;;7.47;;
62941;SDS011;49042;47.318;19.874;2023-03-24T20:16:39;17.58;;;7.10;;
62941;SDS011;49042;47.318;19.874;2023-03-24T20:19:43;10.50;;;6.37;;
62941;SDS011;49042;47.318;19.874;2023-03-24T20:22:46;18.37;;;6.50;;
62941;SDS011;49042;47.318;19.874;2023-03-24T20:25:49;13.23;;;6.45;;
62941;SDS011;49042;47.318;19.874;2023-03-24T20:28:53;20.17;;;6.87;;
62941;SDS011;49042;47.318;19.874;2023-03-24T20:31:57;19.50;;;7.82;;
62941;SDS011;49042;47.318;19.874;2023-03-24T20:35:00;17.70;;;7.85;;
62941;SDS011;49042;47.318;19.874;2023-03-24T20:38:02;20.25;;;8.00;;
62941;SDS011;49042;47.318;19.874;2023-03-24T20:41:05;14.95;;;8.00;;
62941;SDS011;49042;47.318;19.874;2023-03-24T20:44:08;18.65;;;8.15;;
62941;SDS011;49042;47.318;19.874;2023-03-24T20:47:13;14.48;;;7.82;;
62941;SDS011;49042;47.318;19.874;2023-03-24T20:50:16;14.73;;;7.12;;
62941;SDS011;49042;47.318;19.874;2023-03-24T20:53:19;11.48;;;7.15;;
62941;SDS011;49042;47.318;19.874;2023-03-24T20:56:22;14.70;;;6.60;;